SDG096 LICP-LICC
Flight info
| Callsign | SDG096 |
|---|---|
| Flight time | 0h 43m |
| Altitude | 5500 |
| Route | MONREALE PORTELLA DELLA GINESTRA PIANA DEGLI ALBANESI ENNA LAGO DI PERGUSA LAGO DI OGLIASTRO |
| Aircraft | F33A/L-S/C |
Departure
| Time | 2026-05-06 08:51 |
|---|---|
| Airport | Palermo-Boccadifalco Airport (LICP) |
Arrival
| Time | 2026-05-06 09:34 |
|---|---|
| Airport | Catania-Fontanarossa Airport (LICC) |
| Time | Latitude | Longitude | Altitude | Speed | Heading |
|---|---|---|---|---|---|
| 2026-05-06 08:51 | 38.12525 | 13.23339 | 5536 ft | 168 kts | 299° |
| 2026-05-06 08:51 | 38.13149 | 13.22082 | 5537 ft | 169 kts | 300° |
| 2026-05-06 08:51 | 38.13573 | 13.21244 | 5538 ft | 169 kts | 300° |
| 2026-05-06 08:52 | 38.14438 | 13.19564 | 5536 ft | 170 kts | 300° |
| 2026-05-06 08:52 | 38.15091 | 13.18309 | 5541 ft | 170 kts | 301° |
| 2026-05-06 08:52 | 38.15747 | 13.17058 | 5539 ft | 170 kts | 301° |
| 2026-05-06 08:52 | 38.16156 | 13.16192 | 5522 ft | 169 kts | 289° |
| 2026-05-06 08:53 | 38.16388 | 13.14763 | 5523 ft | 169 kts | 286° |
| 2026-05-06 08:53 | 38.17619 | 13.13622 | 5523 ft | 176 kts | 353° |
| 2026-05-06 08:53 | 38.18424 | 13.13775 | 5536 ft | 176 kts | 21° |
| 2026-05-06 08:53 | 38.19496 | 13.14496 | 5563 ft | 175 kts | 35° |
| 2026-05-06 08:54 | 38.20195 | 13.16234 | 5541 ft | 170 kts | 95° |
| 2026-05-06 08:54 | 38.19735 | 13.17545 | 5544 ft | 163 kts | 138° |
| 2026-05-06 08:54 | 38.19101 | 13.18060 | 5569 ft | 160 kts | 155° |
| 2026-05-06 08:54 | 38.17762 | 13.18921 | 5553 ft | 162 kts | 155° |
| 2026-05-06 08:55 | 38.17094 | 13.19343 | 5554 ft | 162 kts | 155° |
| 2026-05-06 08:55 | 38.15749 | 13.20193 | 5551 ft | 162 kts | 155° |
| 2026-05-06 08:55 | 38.14775 | 13.20919 | 5552 ft | 164 kts | 146° |
| 2026-05-06 08:55 | 38.13899 | 13.21847 | 5553 ft | 164 kts | 139° |
| 2026-05-06 08:56 | 38.13100 | 13.22885 | 5553 ft | 165 kts | 134° |
| 2026-05-06 08:56 | 38.12349 | 13.24001 | 5552 ft | 165 kts | 131° |
| 2026-05-06 08:56 | 38.11639 | 13.25152 | 5554 ft | 166 kts | 129° |
| 2026-05-06 08:56 | 38.10966 | 13.26308 | 5552 ft | 166 kts | 128° |
| 2026-05-06 08:57 | 38.10317 | 13.27465 | 5548 ft | 167 kts | 127° |
| 2026-05-06 08:57 | 38.09872 | 13.28279 | 5553 ft | 166 kts | 127° |
| 2026-05-06 08:57 | 38.09008 | 13.29873 | 5552 ft | 166 kts | 127° |
| 2026-05-06 08:57 | 38.08353 | 13.31098 | 5554 ft | 166 kts | 126° |
| 2026-05-06 08:58 | 38.07711 | 13.32301 | 5552 ft | 166 kts | 126° |
| 2026-05-06 08:58 | 38.07277 | 13.33117 | 5549 ft | 166 kts | 126° |
| 2026-05-06 08:58 | 38.06644 | 13.34309 | 5552 ft | 166 kts | 126° |
| 2026-05-06 08:58 | 38.05687 | 13.35843 | 5546 ft | 164 kts | 139° |
| 2026-05-06 08:59 | 38.04953 | 13.36935 | 5551 ft | 165 kts | 136° |
| 2026-05-06 08:59 | 38.04361 | 13.37565 | 5561 ft | 164 kts | 142° |
| 2026-05-06 08:59 | 38.03206 | 13.38817 | 5552 ft | 165 kts | 141° |
| 2026-05-06 08:59 | 38.02329 | 13.39765 | 5551 ft | 165 kts | 141° |
| 2026-05-06 09:00 | 38.01503 | 13.40755 | 5538 ft | 167 kts | 127° |
| 2026-05-06 09:00 | 38.01003 | 13.42088 | 5531 ft | 167 kts | 127° |
| 2026-05-06 09:00 | 38.00180 | 13.43080 | 5557 ft | 164 kts | 138° |
| 2026-05-06 09:00 | 37.99353 | 13.44096 | 5555 ft | 164 kts | 138° |
| 2026-05-06 09:01 | 37.98526 | 13.45089 | 5555 ft | 164 kts | 138° |
| 2026-05-06 09:01 | 37.97969 | 13.45759 | 5554 ft | 165 kts | 138° |
| 2026-05-06 09:01 | 37.96857 | 13.47096 | 5550 ft | 164 kts | 138° |
| 2026-05-06 09:01 | 37.96027 | 13.48094 | 5550 ft | 164 kts | 138° |
| 2026-05-06 09:02 | 37.95193 | 13.49097 | 5549 ft | 164 kts | 138° |
| 2026-05-06 09:02 | 37.94362 | 13.50095 | 5547 ft | 165 kts | 138° |
| 2026-05-06 09:02 | 37.93539 | 13.51082 | 5544 ft | 165 kts | 137° |
| 2026-05-06 09:02 | 37.92981 | 13.51754 | 5554 ft | 164 kts | 138° |
| 2026-05-06 09:03 | 37.92250 | 13.52631 | 5551 ft | 164 kts | 138° |
| 2026-05-06 09:03 | 37.91424 | 13.53624 | 5552 ft | 164 kts | 138° |
| 2026-05-06 09:03 | 37.90595 | 13.54619 | 5552 ft | 164 kts | 137° |
| 2026-05-06 09:03 | 37.89973 | 13.55822 | 5538 ft | 168 kts | 103° |
| 2026-05-06 09:04 | 37.89879 | 13.56782 | 5560 ft | 167 kts | 103° |
| 2026-05-06 09:04 | 37.88955 | 13.58286 | 5554 ft | 163 kts | 138° |
| 2026-05-06 09:04 | 37.88320 | 13.59470 | 5563 ft | 165 kts | 117° |
| 2026-05-06 09:04 | 37.87786 | 13.60772 | 5555 ft | 166 kts | 120° |
| 2026-05-06 09:05 | 37.87238 | 13.62063 | 5552 ft | 167 kts | 120° |
| 2026-05-06 09:05 | 37.86687 | 13.63342 | 5553 ft | 166 kts | 120° |
| 2026-05-06 09:05 | 37.86127 | 13.64626 | 5552 ft | 167 kts | 120° |
| 2026-05-06 09:05 | 37.85564 | 13.65910 | 5552 ft | 167 kts | 121° |
| 2026-05-06 09:06 | 37.85067 | 13.67035 | 5554 ft | 167 kts | 121° |
| 2026-05-06 09:06 | 37.84498 | 13.68322 | 5554 ft | 167 kts | 121° |
| 2026-05-06 09:06 | 37.84026 | 13.69390 | 5552 ft | 167 kts | 121° |
| 2026-05-06 09:06 | 37.83467 | 13.70645 | 5555 ft | 167 kts | 121° |
| 2026-05-06 09:07 | 37.82906 | 13.71906 | 5553 ft | 167 kts | 121° |
| 2026-05-06 09:07 | 37.82338 | 13.73184 | 5553 ft | 166 kts | 121° |
| 2026-05-06 09:07 | 37.81778 | 13.74449 | 5552 ft | 167 kts | 121° |
| 2026-05-06 09:07 | 37.81205 | 13.75738 | 5555 ft | 166 kts | 121° |
| 2026-05-06 09:08 | 37.80641 | 13.77007 | 5555 ft | 166 kts | 121° |
| 2026-05-06 09:08 | 37.80075 | 13.78281 | 5555 ft | 167 kts | 121° |
| 2026-05-06 09:08 | 37.79502 | 13.79568 | 5555 ft | 167 kts | 121° |
| 2026-05-06 09:08 | 37.78927 | 13.80853 | 5556 ft | 167 kts | 121° |
| 2026-05-06 09:09 | 37.78360 | 13.82123 | 5551 ft | 167 kts | 121° |
| 2026-05-06 09:09 | 37.77785 | 13.83403 | 5550 ft | 167 kts | 121° |
| 2026-05-06 09:09 | 37.77218 | 13.84676 | 5555 ft | 166 kts | 121° |
| 2026-05-06 09:09 | 37.76651 | 13.85942 | 5553 ft | 167 kts | 121° |
| 2026-05-06 09:10 | 37.76074 | 13.87226 | 5553 ft | 167 kts | 121° |
| 2026-05-06 09:10 | 37.75505 | 13.88501 | 5559 ft | 167 kts | 121° |
| 2026-05-06 09:10 | 37.74933 | 13.89780 | 5556 ft | 166 kts | 121° |
| 2026-05-06 09:10 | 37.74411 | 13.90945 | 5552 ft | 166 kts | 121° |
| 2026-05-06 09:11 | 37.73846 | 13.92210 | 5558 ft | 166 kts | 121° |
| 2026-05-06 09:11 | 37.73267 | 13.93500 | 5556 ft | 166 kts | 121° |
| 2026-05-06 09:11 | 37.72702 | 13.94757 | 5558 ft | 166 kts | 121° |
| 2026-05-06 09:11 | 37.72126 | 13.96042 | 5560 ft | 166 kts | 121° |
| 2026-05-06 09:12 | 37.71557 | 13.97305 | 5567 ft | 166 kts | 121° |
| 2026-05-06 09:12 | 37.70986 | 13.98580 | 5567 ft | 166 kts | 121° |
| 2026-05-06 09:12 | 37.70420 | 13.99841 | 5569 ft | 166 kts | 121° |
| 2026-05-06 09:12 | 37.69845 | 14.01121 | 5569 ft | 166 kts | 121° |
| 2026-05-06 09:13 | 37.69277 | 14.02383 | 5574 ft | 166 kts | 121° |
| 2026-05-06 09:13 | 37.68705 | 14.03655 | 5578 ft | 166 kts | 121° |
| 2026-05-06 09:13 | 37.68325 | 14.04497 | 5581 ft | 166 kts | 121° |
| 2026-05-06 09:13 | 37.67558 | 14.06203 | 5582 ft | 167 kts | 121° |
| 2026-05-06 09:14 | 37.66982 | 14.07480 | 5585 ft | 166 kts | 121° |
| 2026-05-06 09:14 | 37.66410 | 14.08748 | 5587 ft | 166 kts | 121° |
| 2026-05-06 09:14 | 37.65839 | 14.10013 | 5591 ft | 166 kts | 121° |
| 2026-05-06 09:14 | 37.65272 | 14.11270 | 5594 ft | 166 kts | 121° |
| 2026-05-06 09:15 | 37.64697 | 14.12545 | 5597 ft | 166 kts | 121° |
| 2026-05-06 09:15 | 37.64126 | 14.13809 | 5599 ft | 166 kts | 121° |
| 2026-05-06 09:15 | 37.63550 | 14.15084 | 5602 ft | 167 kts | 121° |
| 2026-05-06 09:15 | 37.62977 | 14.16358 | 5604 ft | 166 kts | 121° |
| 2026-05-06 09:16 | 37.62406 | 14.17627 | 5613 ft | 166 kts | 121° |
| 2026-05-06 09:16 | 37.61839 | 14.18894 | 5634 ft | 165 kts | 121° |
| 2026-05-06 09:16 | 37.61272 | 14.20150 | 5636 ft | 165 kts | 121° |
| 2026-05-06 09:16 | 37.60702 | 14.21412 | 5635 ft | 166 kts | 122° |
| 2026-05-06 09:17 | 37.60128 | 14.22678 | 5633 ft | 166 kts | 121° |
| 2026-05-06 09:17 | 37.59551 | 14.23952 | 5635 ft | 166 kts | 122° |
| 2026-05-06 09:17 | 37.58977 | 14.25213 | 5637 ft | 167 kts | 121° |
| 2026-05-06 09:17 | 37.58395 | 14.26494 | 5636 ft | 166 kts | 121° |
| 2026-05-06 09:18 | 37.57818 | 14.27765 | 5637 ft | 167 kts | 121° |
| 2026-05-06 09:18 | 37.57242 | 14.29038 | 5633 ft | 167 kts | 121° |
| 2026-05-06 09:18 | 37.56668 | 14.30307 | 5632 ft | 167 kts | 121° |
| 2026-05-06 09:18 | 37.56287 | 14.31146 | 5630 ft | 167 kts | 121° |
| 2026-05-06 09:19 | 37.55516 | 14.32849 | 5632 ft | 167 kts | 121° |
| 2026-05-06 09:19 | 37.55001 | 14.34156 | 5633 ft | 167 kts | 116° |
| 2026-05-06 09:19 | 37.54509 | 14.35482 | 5634 ft | 167 kts | 117° |
| 2026-05-06 09:19 | 37.54015 | 14.36813 | 5632 ft | 167 kts | 117° |
| 2026-05-06 09:20 | 37.53525 | 14.38141 | 5633 ft | 167 kts | 117° |
| 2026-05-06 09:20 | 37.53042 | 14.39451 | 5633 ft | 167 kts | 117° |
| 2026-05-06 09:20 | 37.52549 | 14.40786 | 5632 ft | 167 kts | 117° |
| 2026-05-06 09:20 | 37.52059 | 14.42121 | 5632 ft | 167 kts | 117° |
| 2026-05-06 09:21 | 37.51574 | 14.43441 | 5633 ft | 166 kts | 117° |
| 2026-05-06 09:21 | 37.51246 | 14.44328 | 5632 ft | 166 kts | 117° |
| 2026-05-06 09:21 | 37.50595 | 14.46090 | 5635 ft | 166 kts | 117° |
| 2026-05-06 09:21 | 37.50105 | 14.47407 | 5631 ft | 167 kts | 117° |
| 2026-05-06 09:22 | 37.49612 | 14.48738 | 5632 ft | 167 kts | 117° |
| 2026-05-06 09:22 | 37.49121 | 14.50066 | 5633 ft | 167 kts | 117° |
| 2026-05-06 09:22 | 37.48632 | 14.51387 | 5632 ft | 166 kts | 117° |
| 2026-05-06 09:22 | 37.48150 | 14.52694 | 5632 ft | 166 kts | 117° |
| 2026-05-06 09:23 | 37.47655 | 14.54031 | 5637 ft | 166 kts | 117° |
| 2026-05-06 09:23 | 37.47172 | 14.55340 | 5641 ft | 166 kts | 117° |
| 2026-05-06 09:23 | 37.46687 | 14.56652 | 5640 ft | 166 kts | 117° |
| 2026-05-06 09:23 | 37.46180 | 14.58015 | 5441 ft | 177 kts | 117° |
| 2026-05-06 09:24 | 37.45650 | 14.59444 | 5245 ft | 182 kts | 117° |
| 2026-05-06 09:24 | 37.45108 | 14.60898 | 5119 ft | 182 kts | 116° |
| 2026-05-06 09:24 | 37.44576 | 14.62342 | 5040 ft | 180 kts | 116° |
| 2026-05-06 09:24 | 37.44048 | 14.63768 | 4925 ft | 181 kts | 116° |
| 2026-05-06 09:25 | 37.43519 | 14.65209 | 4829 ft | 180 kts | 115° |
| 2026-05-06 09:25 | 37.42974 | 14.66658 | 4755 ft | 178 kts | 121° |
| 2026-05-06 09:25 | 37.42407 | 14.68036 | 4675 ft | 178 kts | 115° |
| 2026-05-06 09:25 | 37.41999 | 14.69498 | 4605 ft | 178 kts | 111° |
| 2026-05-06 09:26 | 37.41629 | 14.71000 | 4518 ft | 180 kts | 101° |
| 2026-05-06 09:26 | 37.41556 | 14.72562 | 4464 ft | 179 kts | 95° |
| 2026-05-06 09:26 | 37.41475 | 14.74135 | 4387 ft | 179 kts | 96° |
| 2026-05-06 09:26 | 37.41401 | 14.75704 | 4314 ft | 179 kts | 95° |
| 2026-05-06 09:27 | 37.41414 | 14.76739 | 4247 ft | 182 kts | 81° |
| 2026-05-06 09:27 | 37.42051 | 14.78700 | 4238 ft | 179 kts | 69° |
| 2026-05-06 09:27 | 37.42537 | 14.80146 | 4228 ft | 177 kts | 69° |
| 2026-05-06 09:27 | 37.43028 | 14.81581 | 4150 ft | 180 kts | 69° |
| 2026-05-06 09:28 | 37.43524 | 14.83032 | 4073 ft | 181 kts | 69° |
| 2026-05-06 09:28 | 37.44027 | 14.84504 | 3990 ft | 182 kts | 68° |
| 2026-05-06 09:28 | 37.44561 | 14.85949 | 3914 ft | 183 kts | 67° |
| 2026-05-06 09:28 | 37.44851 | 14.86966 | 3856 ft | 182 kts | 77° |
| 2026-05-06 09:29 | 37.45159 | 14.89019 | 3803 ft | 176 kts | 84° |
| 2026-05-06 09:29 | 37.45324 | 14.90341 | 3695 ft | 122 kts | 78° |
| 2026-05-06 09:29 | 37.45477 | 14.90995 | 3525 ft | 117 kts | 78° |
| 2026-05-06 09:29 | 37.45777 | 14.92288 | 3264 ft | 111 kts | 76° |
| 2026-05-06 09:30 | 37.45982 | 14.93164 | 2993 ft | 102 kts | 79° |
| 2026-05-06 09:30 | 37.46108 | 14.94014 | 2750 ft | 96 kts | 84° |
| 2026-05-06 09:30 | 37.46236 | 14.94835 | 2510 ft | 96 kts | 84° |
| 2026-05-06 09:30 | 37.46320 | 14.95681 | 2253 ft | 96 kts | 85° |
| 2026-05-06 09:31 | 37.46402 | 14.96494 | 2054 ft | 92 kts | 85° |
| 2026-05-06 09:31 | 37.46484 | 14.97265 | 1866 ft | 88 kts | 85° |
| 2026-05-06 09:31 | 37.46548 | 14.98045 | 1642 ft | 89 kts | 88° |
| 2026-05-06 09:31 | 37.46605 | 14.98840 | 1446 ft | 91 kts | 87° |
| 2026-05-06 09:32 | 37.46621 | 14.99612 | 1348 ft | 85 kts | 91° |
| 2026-05-06 09:32 | 37.46470 | 15.00310 | 1278 ft | 81 kts | 105° |
| 2026-05-06 09:32 | 37.46322 | 15.00999 | 1266 ft | 80 kts | 99° |
| 2026-05-06 09:32 | 37.46291 | 15.01743 | 1250 ft | 89 kts | 87° |
| 2026-05-06 09:33 | 37.46323 | 15.02263 | 1094 ft | 89 kts | 83° |
| 2026-05-06 09:33 | 37.46411 | 15.03285 | 696 ft | 85 kts | 84° |
| 2026-05-06 09:33 | 37.46469 | 15.03992 | 466 ft | 82 kts | 83° |
| 2026-05-06 09:33 | 37.46522 | 15.04700 | 218 ft | 81 kts | 83° |
| 2026-05-06 09:34 | 37.46590 | 15.05410 | 77 ft | 79 kts | 84° |
| 2026-05-06 09:34 | 37.46639 | 15.06049 | 31 ft | 62 kts | 86° |
| 2026-05-06 09:34 | 37.46685 | 15.06291 | 24 ft | 13 kts | 20° |
| 2026-05-06 09:34 | 37.46761 | 15.06320 | 25 ft | 9 kts | 20° |
| 2026-05-06 09:35 | 37.46788 | 15.06311 | 26 ft | 3 kts | 346° |
| 2026-05-06 09:35 | 37.46823 | 15.06316 | 27 ft | 6 kts | 9° |
| 2026-05-06 09:35 | 37.46851 | 15.06323 | 27 ft | 0 kts | 15° |